Terminal Aerodrome Forecast
Issued by NWS

Home | Current Version | Previous Version | Text Only | Print | Product List | Glossary On
Versions: 1 2 3 4 5 6 7 8 9 10 11 12
797
FTUS42 TJSJ 240522
TAFNCM
TAF
TNCM 240522Z 2406/2506 11008KT P6SM SCT020 SCT050 BKN250
     FM241400 13011KT P6SM SCT020 SCT050 BKN250
     FM242300 11007KT P6SM VCSH SCT020 BKN050 BKN250
      AMD NOT SKED=

USA.gov is the U.S. government's official web portal to all federal, state and local government web resources and services.